createdAt,value
2022-12-23T00:01:46.037Z,1.35
2022-12-23T00:04:12.702Z,1.10
2022-12-23T00:06:39.267Z,1.40
2022-12-23T00:09:05.845Z,1.30
2022-12-23T00:11:32.373Z,1.15
2022-12-23T00:13:58.896Z,1.40
2022-12-23T00:16:25.518Z,1.20
2022-12-23T00:18:53.010Z,1.15
2022-12-23T00:21:19.795Z,1.00
2022-12-23T00:23:48.851Z,1.23
2022-12-23T00:26:20.954Z,1.25
2022-12-23T00:28:47.751Z,1.63
2022-12-23T00:31:14.896Z,1.40
2022-12-23T00:33:44.495Z,1.25
2022-12-23T00:36:20.608Z,1.60
2022-12-23T00:38:47.710Z,1.50
2022-12-23T00:41:17.214Z,1.63
2022-12-23T00:43:43.737Z,1.92
2022-12-23T00:46:10.284Z,2.33
2022-12-23T00:48:36.855Z,2.65
2022-12-23T00:51:03.592Z,2.35
2022-12-23T00:53:30.287Z,2.30
2022-12-23T00:55:56.775Z,2.83
2022-12-23T00:58:23.365Z,2.90
2022-12-23T01:00:50.003Z,2.95
2022-12-23T01:03:16.709Z,2.53
2022-12-23T01:05:43.375Z,2.33
2022-12-23T01:08:11.871Z,2.30
2022-12-23T01:10:40.225Z,2.90
2022-12-23T01:13:07.125Z,3.30
2022-12-23T01:15:34.034Z,3.08
2022-12-23T01:18:00.571Z,2.80
2022-12-23T01:20:27.115Z,3.83
2022-12-23T01:22:53.639Z,3.80
2022-12-23T01:25:20.182Z,3.22
2022-12-23T01:27:46.735Z,3.60
2022-12-23T01:30:13.432Z,4.00
2022-12-23T01:32:39.958Z,3.97
2022-12-23T01:35:06.675Z,3.05
2022-12-23T01:37:33.209Z,3.80
2022-12-23T01:39:59.772Z,4.40
2022-12-23T01:42:26.429Z,4.15
2022-12-23T01:45:00.132Z,4.03
2022-12-23T01:47:47.114Z,4.05
2022-12-23T01:50:32.363Z,3.55
2022-12-23T01:53:18.968Z,3.30
2022-12-23T01:55:50.675Z,3.63
2022-12-23T01:58:24.954Z,3.75
2022-12-23T02:00:53.058Z,3.65
2022-12-23T02:03:19.724Z,3.08
2022-12-23T02:05:48.042Z,3.45
2022-12-23T02:08:16.431Z,3.33
2022-12-23T02:11:20.782Z,3.10
2022-12-23T02:13:47.273Z,3.13
2022-12-23T02:16:14.626Z,3.22
2022-12-23T02:19:05.309Z,2.63
2022-12-23T02:21:49.339Z,2.30
2022-12-23T02:24:53.395Z,3.10
2022-12-23T02:27:32.486Z,3.28
2022-12-23T02:30:36.746Z,3.03
2022-12-23T02:33:10.040Z,3.00
2022-12-23T02:35:54.431Z,2.25
2022-12-23T02:39:01.467Z,2.75
2022-12-23T02:41:49.450Z,2.53
2022-12-23T02:44:45.372Z,3.00
2022-12-23T02:47:23.600Z,3.25
2022-12-23T02:49:57.978Z,2.30
2022-12-23T02:52:33.717Z,2.58
2022-12-23T02:55:07.782Z,2.30
2022-12-23T02:57:38.705Z,2.85
2022-12-23T03:00:06.304Z,2.45
2022-12-23T03:02:38.856Z,2.50
2022-12-23T03:05:06.340Z,2.65
2022-12-23T03:07:32.803Z,2.10
2022-12-23T03:10:26.171Z,1.90
2022-12-23T03:13:12.571Z,2.35
2022-12-23T03:15:56.227Z,1.58
2022-12-23T03:18:47.013Z,1.60
2022-12-23T03:21:22.258Z,1.70
2022-12-23T03:24:05.088Z,1.55
2022-12-23T03:26:42.569Z,1.98
2022-12-23T03:29:21.460Z,1.90
2022-12-23T03:31:51.564Z,1.45
2022-12-23T03:34:24.164Z,1.83
2022-12-23T03:36:54.722Z,0.93
2022-12-23T03:39:26.440Z,1.75
2022-12-23T03:41:59.276Z,1.65
2022-12-23T03:44:30.914Z,1.30
2022-12-23T03:47:18.562Z,1.65
2022-12-23T03:52:26.634Z,1.60
2022-12-23T03:54:57.264Z,1.30
2022-12-23T03:57:30.024Z,1.40
2022-12-23T03:59:56.912Z,1.40
2022-12-23T04:02:52.781Z,1.40
2022-12-23T04:05:26.121Z,1.17
2022-12-23T04:08:13.869Z,1.60
2022-12-23T04:13:08.059Z,1.38
2022-12-23T04:15:41.664Z,2.15
2022-12-23T04:18:09.464Z,2.60
2022-12-23T04:20:37.146Z,2.03
2022-12-23T04:23:04.182Z,2.08
2022-12-23T04:25:30.660Z,2.85
2022-12-23T04:27:57.187Z,2.63
2022-12-23T04:30:26.690Z,3.08
2022-12-23T04:32:58.067Z,2.53
2022-12-23T04:35:24.579Z,2.83
2022-12-23T04:37:51.095Z,2.88
2022-12-23T04:40:17.757Z,2.60
2022-12-23T04:42:44.322Z,3.17
2022-12-23T04:45:11.006Z,2.72
2022-12-23T04:47:37.591Z,2.60
2022-12-23T04:50:04.997Z,1.90
2022-12-23T04:52:31.576Z,2.92
2022-12-23T04:54:58.094Z,1.92
2022-12-23T04:57:24.633Z,2.22
2022-12-23T04:59:51.147Z,2.28
2022-12-23T05:02:17.845Z,2.08
2022-12-23T05:04:44.496Z,2.67
2022-12-23T05:07:11.119Z,2.30
2022-12-23T05:09:37.687Z,2.15
2022-12-23T05:12:04.266Z,2.30
2022-12-23T05:14:30.804Z,1.95
2022-12-23T05:17:00.865Z,1.77
2022-12-23T05:19:31.857Z,2.78
2022-12-23T05:21:58.367Z,2.17
2022-12-23T05:24:25.015Z,1.90
2022-12-23T05:26:59.240Z,3.05
2022-12-23T05:29:26.520Z,2.55
2022-12-23T05:31:53.145Z,2.25
2022-12-23T05:34:19.926Z,2.90
2022-12-23T05:36:46.407Z,2.78
2022-12-23T05:39:13.143Z,2.05
2022-12-23T05:41:39.730Z,2.38
2022-12-23T05:44:06.355Z,2.28
2022-12-23T05:46:32.981Z,2.42
2022-12-23T05:48:59.506Z,2.83
2022-12-23T05:51:26.047Z,1.98
2022-12-23T05:53:52.620Z,2.78
2022-12-23T05:56:19.154Z,2.50
2022-12-23T05:58:45.623Z,2.85
2022-12-23T06:01:12.214Z,2.75
2022-12-23T06:03:50.893Z,2.42
2022-12-23T06:06:17.471Z,2.75
2022-12-23T06:08:44.011Z,3.03
2022-12-23T06:11:10.517Z,2.47
2022-12-23T06:13:37.087Z,3.20
2022-12-23T06:16:04.084Z,2.80
2022-12-23T06:18:30.619Z,3.53
2022-12-23T06:20:57.199Z,3.20
2022-12-23T06:23:23.734Z,3.75
2022-12-23T06:25:50.255Z,3.40
2022-12-23T06:28:16.783Z,2.92
2022-12-23T06:30:43.294Z,3.50
2022-12-23T06:33:09.779Z,3.67
2022-12-23T06:35:36.319Z,3.28
2022-12-23T06:38:04.651Z,3.17
2022-12-23T06:40:34.084Z,3.25
2022-12-23T06:43:00.567Z,2.63
2022-12-23T06:45:27.100Z,2.50
2022-12-23T06:47:53.607Z,3.05
2022-12-23T06:50:20.179Z,2.92
2022-12-23T06:52:46.684Z,3.42
2022-12-23T06:55:13.178Z,2.95
2022-12-23T06:57:39.681Z,2.80
2022-12-23T07:00:07.558Z,3.38
2022-12-23T07:02:34.127Z,4.10
2022-12-23T07:05:00.799Z,3.50
2022-12-23T07:07:27.462Z,3.85
2022-12-23T07:09:53.936Z,3.78
2022-12-23T07:12:20.445Z,3.40
2022-12-23T07:14:46.960Z,4.00
2022-12-23T07:17:13.607Z,4.03
2022-12-23T07:19:40.179Z,3.33
2022-12-23T07:22:06.954Z,3.78
2022-12-23T07:24:33.531Z,5.07
2022-12-23T07:27:00.105Z,6.68
2022-12-23T07:29:26.682Z,5.55
2022-12-23T07:31:53.248Z,4.13
2022-12-23T07:34:19.961Z,5.28
2022-12-23T07:36:46.462Z,6.07
2022-12-23T07:39:12.987Z,5.40
2022-12-23T07:41:40.523Z,4.80
2022-12-23T07:44:08.071Z,5.68
2022-12-23T07:46:35.049Z,8.25
2022-12-23T07:49:01.618Z,4.20
2022-12-23T07:51:28.210Z,7.32
2022-12-23T07:53:54.751Z,4.97
2022-12-23T07:56:21.567Z,15.23
2022-12-23T07:58:49.694Z,6.63
2022-12-23T08:01:17.167Z,10.10
2022-12-23T08:03:43.948Z,14.30
2022-12-23T08:09:38.974Z,5.97
2022-12-23T08:12:30.333Z,5.38
2022-12-23T08:14:56.919Z,7.30
2022-12-23T08:17:31.458Z,5.72
2022-12-23T08:23:27.568Z,6.63
2022-12-23T08:26:04.271Z,7.82
2022-12-23T08:28:31.339Z,6.13
2022-12-23T08:31:12.753Z,5.68
2022-12-23T08:33:40.727Z,5.43
2022-12-23T08:36:09.219Z,5.20
2022-12-23T08:38:36.694Z,5.68
2022-12-23T08:41:03.898Z,6.95
2022-12-23T08:43:35.832Z,5.07
2022-12-23T08:46:03.167Z,6.75
2022-12-23T08:48:29.729Z,7.95
2022-12-23T08:50:56.344Z,5.35
2022-12-23T08:53:22.895Z,5.05
2022-12-23T08:55:49.593Z,4.03
2022-12-23T08:58:16.210Z,3.47
2022-12-23T09:00:42.864Z,3.67
2022-12-23T09:03:09.808Z,3.78
2022-12-23T09:05:40.437Z,3.65
2022-12-23T09:08:07.426Z,6.40
2022-12-23T09:10:34.870Z,4.45
2022-12-23T09:13:01.413Z,3.40
2022-12-23T09:15:27.952Z,5.35
2022-12-23T09:17:54.489Z,5.88
2022-12-23T09:20:20.990Z,4.07
2022-12-23T09:22:47.525Z,4.53
2022-12-23T09:25:14.127Z,5.00
2022-12-23T09:27:40.782Z,4.65
2022-12-23T09:30:07.894Z,6.70
2022-12-23T09:32:34.431Z,6.38
2022-12-23T09:35:01.009Z,4.32
2022-12-23T09:37:27.546Z,8.55
2022-12-23T09:39:54.097Z,5.07
2022-12-23T09:42:44.683Z,4.40
2022-12-23T09:45:14.206Z,7.00
2022-12-23T09:47:42.618Z,8.32
2022-12-23T09:50:33.218Z,5.40
2022-12-23T09:53:03.370Z,4.85
2022-12-23T09:56:07.945Z,4.05
2022-12-23T09:58:52.569Z,4.53
2022-12-23T10:01:31.300Z,4.50
2022-12-23T10:04:22.370Z,4.28
2022-12-23T10:07:08.904Z,3.70
2022-12-23T10:09:39.988Z,3.53
2022-12-23T10:12:39.387Z,3.90
2022-12-23T10:15:36.331Z,3.97
2022-12-23T10:18:12.063Z,3.58
2022-12-23T10:20:48.025Z,3.63
2022-12-23T10:23:22.728Z,2.78
2022-12-23T10:25:51.454Z,3.30
2022-12-23T10:28:18.417Z,2.35
2022-12-23T10:31:17.342Z,2.63
2022-12-23T10:33:52.152Z,2.20
2022-12-23T10:36:46.948Z,1.80
2022-12-23T10:39:20.831Z,2.00
2022-12-23T10:42:05.262Z,2.15
2022-12-23T10:45:00.291Z,2.10
2022-12-23T10:47:45.673Z,2.17
2022-12-23T10:50:50.987Z,1.40
2022-12-23T10:53:40.766Z,1.33
2022-12-23T10:56:08.363Z,1.77
2022-12-23T11:02:12.312Z,1.27
2022-12-23T11:04:44.078Z,1.55
2022-12-23T11:10:19.597Z,1.52
2022-12-23T11:12:50.493Z,1.90
2022-12-23T11:15:25.657Z,1.30
2022-12-23T11:17:58.795Z,2.10
2022-12-23T11:20:25.375Z,2.50
2022-12-23T11:22:57.066Z,2.17
2022-12-23T11:25:33.914Z,1.73
2022-12-23T11:28:03.052Z,1.60
2022-12-23T11:30:32.745Z,1.95
2022-12-23T11:33:00.393Z,1.40
2022-12-23T11:35:30.953Z,2.03
2022-12-23T11:38:01.737Z,2.25
2022-12-23T11:40:35.531Z,1.80
2022-12-23T11:43:04.486Z,2.05
2022-12-23T11:45:35.855Z,2.30
2022-12-23T11:48:25.982Z,1.58
2022-12-23T11:51:00.897Z,2.30
2022-12-23T11:53:27.893Z,8.02
2022-12-23T11:55:59.505Z,9.40
2022-12-23T11:58:28.507Z,3.20
2022-12-23T12:00:58.389Z,6.03
2022-12-23T12:03:30.701Z,5.47
2022-12-23T12:06:04.761Z,2.85
2022-12-23T12:08:36.547Z,2.17
2022-12-23T12:11:15.559Z,3.50
2022-12-23T12:13:44.793Z,4.22
2022-12-23T12:16:51.468Z,2.42
2022-12-23T12:19:31.192Z,2.63
2022-12-23T12:22:04.180Z,3.47
2022-12-23T12:24:36.492Z,3.80
2022-12-23T12:27:06.342Z,10.23
2022-12-23T12:29:42.067Z,5.20
2022-12-23T12:32:22.404Z,6.28
2022-12-23T12:34:58.621Z,2.50
2022-12-23T12:37:29.879Z,3.08
2022-12-23T12:40:32.137Z,3.78
2022-12-23T12:43:05.021Z,2.80
2022-12-23T12:46:02.001Z,3.05
2022-12-23T12:48:53.934Z,2.50
2022-12-23T12:51:42.891Z,1.52
2022-12-23T12:54:24.351Z,1.65
2022-12-23T12:56:54.002Z,2.38
2022-12-23T12:59:26.149Z,2.92
2022-12-23T13:02:06.721Z,2.70
2022-12-23T13:04:42.152Z,3.13
2022-12-23T13:07:29.355Z,2.65
2022-12-23T13:10:27.549Z,2.45
2022-12-23T13:13:19.932Z,2.88
2022-12-23T13:16:02.728Z,2.53
2022-12-23T13:19:03.851Z,1.85
2022-12-23T13:21:54.710Z,1.83
2022-12-23T13:24:25.037Z,3.20
2022-12-23T13:27:02.125Z,1.95
2022-12-23T13:29:57.977Z,2.47
2022-12-23T13:32:44.570Z,1.50
2022-12-23T13:35:39.981Z,1.55
2022-12-23T13:38:39.918Z,1.95
2022-12-23T13:41:12.505Z,1.48
2022-12-23T13:43:45.994Z,1.50
2022-12-23T13:46:31.522Z,1.25
2022-12-23T13:49:27.243Z,1.15
2022-12-23T13:52:06.798Z,1.55
2022-12-23T13:54:42.350Z,0.95
2022-12-23T13:57:39.823Z,1.25
2022-12-23T14:00:18.653Z,1.20
2022-12-23T14:02:51.049Z,1.70
2022-12-23T14:05:29.973Z,1.00
2022-12-23T14:07:59.260Z,1.30
2022-12-23T14:10:26.475Z,1.10
2022-12-23T14:13:00.139Z,1.40
2022-12-23T14:15:44.542Z,1.00
2022-12-23T14:18:29.769Z,1.08
2022-12-23T14:21:16.000Z,2.05
2022-12-23T14:24:25.914Z,1.90
2022-12-23T14:27:13.963Z,1.95
2022-12-23T14:29:43.308Z,1.73
2022-12-23T14:32:24.009Z,1.23
2022-12-23T14:35:12.384Z,1.23
2022-12-23T14:37:40.296Z,1.75
2022-12-23T14:40:39.113Z,1.77
2022-12-23T14:43:48.068Z,1.63
2022-12-23T14:46:47.128Z,1.80
2022-12-23T14:49:38.843Z,1.00
2022-12-23T14:52:39.206Z,1.98
2022-12-23T14:55:31.240Z,1.75
2022-12-23T14:58:19.847Z,1.63
2022-12-23T15:00:49.855Z,1.45
2022-12-23T15:03:19.251Z,1.00
2022-12-23T15:05:46.744Z,0.90
2022-12-23T15:08:33.586Z,1.20
2022-12-23T15:11:00.260Z,1.40
2022-12-23T15:13:29.022Z,1.63
2022-12-23T15:16:01.317Z,1.30
2022-12-23T15:18:29.211Z,2.50
2022-12-23T15:21:04.655Z,1.20
2022-12-23T15:23:31.289Z,1.42
2022-12-23T15:25:59.806Z,1.35
2022-12-23T15:28:44.225Z,1.40
2022-12-23T15:31:38.889Z,1.30
2022-12-23T15:34:16.841Z,1.08
2022-12-23T15:36:45.406Z,0.95
2022-12-23T15:39:19.987Z,1.00
2022-12-23T15:41:48.142Z,0.95
2022-12-23T15:44:22.692Z,0.82
2022-12-23T15:46:50.396Z,0.95
2022-12-23T15:49:18.328Z,1.13
2022-12-23T15:52:15.247Z,0.90
2022-12-23T15:54:52.732Z,0.47
2022-12-23T15:57:21.647Z,0.80
2022-12-23T15:59:48.835Z,0.98
2022-12-23T16:02:59.025Z,0.70
2022-12-23T16:05:12.949Z,0.90
2022-12-23T16:07:41.358Z,0.80
2022-12-23T16:10:26.235Z,0.82
2022-12-23T16:12:53.956Z,1.30
2022-12-23T16:15:25.431Z,1.08
2022-12-23T16:17:51.995Z,0.88
2022-12-23T16:20:23.689Z,1.38
2022-12-23T16:23:00.580Z,0.95
2022-12-23T16:25:31.088Z,0.85
2022-12-23T16:28:05.036Z,0.98
2022-12-23T16:30:33.656Z,0.88
2022-12-23T16:33:02.773Z,1.52
2022-12-23T16:35:31.551Z,1.20
2022-12-23T16:38:23.060Z,1.20
2022-12-23T16:40:52.491Z,1.67
2022-12-23T16:43:20.576Z,1.35
2022-12-23T16:45:54.680Z,2.17
2022-12-23T16:48:33.828Z,2.92
2022-12-23T16:51:02.031Z,1.30
2022-12-23T16:53:29.876Z,1.50
2022-12-23T16:56:00.645Z,1.42
2022-12-23T16:58:27.988Z,1.90
2022-12-23T17:00:54.956Z,1.00
2022-12-23T17:03:21.525Z,1.35
2022-12-23T17:05:48.159Z,1.65
2022-12-23T17:08:14.975Z,1.10
2022-12-23T17:10:43.608Z,1.45
2022-12-23T17:13:15.964Z,1.90
2022-12-23T17:15:42.692Z,1.63
2022-12-23T17:18:14.358Z,1.10
2022-12-23T17:20:41.758Z,1.17
2022-12-23T17:23:30.990Z,1.88
2022-12-23T17:25:57.756Z,1.58
2022-12-23T17:28:29.948Z,1.38
2022-12-23T17:30:58.048Z,2.50
2022-12-23T17:33:28.351Z,2.20
2022-12-23T17:35:55.122Z,2.35
2022-12-23T17:38:21.970Z,1.73
2022-12-23T17:40:49.778Z,1.90
2022-12-23T17:43:18.318Z,2.15
2022-12-23T17:45:45.816Z,1.88
2022-12-23T17:48:19.778Z,1.85
2022-12-23T17:50:48.357Z,1.70
2022-12-23T17:53:17.904Z,1.52
2022-12-23T17:55:44.925Z,2.08
2022-12-23T17:58:11.771Z,2.15
2022-12-23T18:00:38.361Z,1.42
2022-12-23T18:03:06.251Z,2.28
2022-12-23T18:05:35.336Z,2.20
2022-12-23T18:08:02.789Z,2.13
2022-12-23T18:10:38.889Z,2.35
2022-12-23T18:13:09.401Z,2.15
2022-12-23T18:15:39.089Z,1.73
2022-12-23T18:18:30.184Z,1.70
2022-12-23T18:21:00.234Z,1.98
2022-12-23T18:23:28.826Z,1.70
2022-12-23T18:25:56.856Z,1.90
2022-12-23T18:28:24.083Z,1.83
2022-12-23T18:30:55.886Z,1.77
2022-12-23T18:33:22.562Z,2.33
2022-12-23T18:35:50.150Z,1.88
2022-12-23T18:38:17.872Z,1.73
2022-12-23T18:40:44.924Z,1.27
2022-12-23T18:43:21.064Z,1.83
2022-12-23T18:45:52.847Z,1.98
2022-12-23T18:48:20.107Z,1.58
2022-12-23T18:50:46.808Z,1.55
2022-12-23T18:53:24.955Z,1.90
2022-12-23T18:55:52.954Z,1.63
2022-12-23T18:58:19.989Z,1.80
2022-12-23T19:00:47.730Z,2.17
2022-12-23T19:03:24.092Z,2.17
2022-12-23T19:05:51.978Z,2.40
2022-12-23T19:08:25.515Z,1.65
2022-12-23T19:10:53.791Z,1.63
2022-12-23T19:13:20.596Z,1.98
2022-12-23T19:15:47.350Z,1.90
2022-12-23T19:18:17.164Z,1.50
2022-12-23T19:20:44.719Z,2.03
2022-12-23T19:23:12.293Z,1.98
2022-12-23T19:25:46.064Z,2.20
2022-12-23T19:28:19.002Z,1.60
2022-12-23T19:30:45.660Z,1.67
2022-12-23T19:33:12.218Z,2.40
2022-12-23T19:35:41.858Z,2.08
2022-12-23T19:38:08.459Z,1.73
2022-12-23T19:40:34.941Z,2.13
2022-12-23T19:43:02.040Z,2.20
2022-12-23T19:45:28.582Z,2.00
2022-12-23T19:47:55.108Z,2.65
2022-12-23T19:50:21.801Z,1.63
2022-12-23T19:52:48.616Z,2.40
2022-12-23T19:55:15.455Z,2.00
2022-12-23T19:57:42.057Z,1.73
2022-12-23T20:00:09.147Z,1.83
2022-12-23T20:02:36.867Z,2.33
2022-12-23T20:05:04.284Z,2.03
2022-12-23T20:07:30.831Z,1.98
2022-12-23T20:09:57.327Z,2.47
2022-12-23T20:12:23.936Z,1.90
2022-12-23T20:14:50.461Z,1.05
2022-12-23T20:17:17.024Z,1.27
2022-12-23T20:19:46.046Z,1.85
2022-12-23T20:22:13.202Z,2.03
2022-12-23T20:24:39.717Z,1.92
2022-12-23T20:27:10.896Z,1.77
2022-12-23T20:29:38.734Z,1.67
2022-12-23T20:32:05.516Z,1.30
2022-12-23T20:34:38.718Z,1.88
2022-12-23T20:37:06.418Z,1.58
2022-12-23T20:39:32.941Z,1.30
2022-12-23T20:41:59.532Z,1.15
2022-12-23T20:44:35.704Z,1.48
2022-12-23T20:47:04.018Z,1.75
2022-12-23T20:49:30.835Z,1.83
2022-12-23T20:51:57.316Z,1.48
2022-12-23T20:54:31.736Z,2.00
2022-12-23T20:56:59.585Z,2.17
2022-12-23T20:59:26.521Z,1.40
2022-12-23T21:01:53.112Z,1.67
2022-12-23T21:04:19.732Z,1.77
2022-12-23T21:06:48.337Z,1.85
2022-12-23T21:09:15.572Z,2.28
2022-12-23T21:11:44.433Z,1.95
2022-12-23T21:14:11.525Z,1.95
2022-12-23T21:16:39.026Z,2.25
2022-12-23T21:19:07.670Z,2.90
2022-12-23T21:21:34.426Z,1.50
2022-12-23T21:24:02.637Z,2.58
2022-12-23T21:26:30.869Z,1.25
2022-12-23T21:28:59.709Z,2.13
2022-12-23T21:31:28.019Z,4.82
2022-12-23T21:33:55.039Z,1.60
2022-12-23T21:36:24.022Z,2.35
2022-12-23T21:38:51.386Z,1.73
2022-12-23T21:41:27.381Z,2.25
2022-12-23T21:43:55.302Z,1.98
2022-12-23T21:46:23.115Z,2.47
2022-12-23T21:48:50.215Z,1.52
2022-12-23T21:51:19.581Z,1.98
2022-12-23T21:53:48.893Z,1.30
2022-12-23T21:56:19.150Z,3.35
2022-12-23T21:58:45.989Z,4.13
2022-12-23T22:01:18.669Z,3.47
2022-12-23T22:03:47.992Z,2.67
2022-12-23T22:06:22.696Z,2.70
2022-12-23T22:08:52.253Z,2.25
2022-12-23T22:11:28.462Z,1.90
2022-12-23T22:13:59.579Z,2.20
2022-12-23T22:16:28.216Z,1.92
2022-12-23T22:18:56.153Z,1.52
2022-12-23T22:21:25.285Z,2.08
2022-12-23T22:23:55.282Z,1.40
2022-12-23T22:26:25.701Z,1.02
2022-12-23T22:28:55.298Z,1.95
2022-12-23T22:31:30.761Z,1.48
2022-12-23T22:33:57.795Z,1.77
2022-12-23T22:36:24.407Z,2.63
2022-12-23T22:38:56.255Z,2.10
2022-12-23T22:41:23.884Z,1.95
2022-12-23T22:43:50.744Z,2.50
2022-12-23T22:46:17.498Z,2.75
2022-12-23T22:48:44.519Z,2.33
2022-12-23T22:51:15.639Z,2.35
2022-12-23T22:53:42.538Z,2.38
2022-12-23T22:56:12.084Z,1.63
2022-12-23T22:58:39.092Z,2.55
2022-12-23T23:01:06.529Z,2.22
2022-12-23T23:03:33.363Z,2.70
2022-12-23T23:06:06.426Z,2.03
2022-12-23T23:08:34.640Z,2.20
2022-12-23T23:11:03.513Z,2.60
2022-12-23T23:13:33.475Z,2.47
2022-12-23T23:16:01.618Z,1.50
2022-12-23T23:18:29.478Z,2.22
2022-12-23T23:20:56.437Z,2.55
2022-12-23T23:23:22.941Z,1.88
2022-12-23T23:25:49.725Z,2.00
2022-12-23T23:28:16.487Z,2.60
2022-12-23T23:30:43.339Z,2.00
2022-12-23T23:33:10.561Z,2.50
2022-12-23T23:35:37.132Z,2.47
2022-12-23T23:38:04.130Z,2.22
2022-12-23T23:40:30.961Z,2.92
2022-12-23T23:42:57.477Z,2.15
2022-12-23T23:45:23.992Z,2.50
2022-12-23T23:47:50.646Z,1.70
2022-12-23T23:50:17.235Z,3.20
2022-12-23T23:52:43.935Z,2.47
2022-12-23T23:55:10.517Z,2.40
2022-12-23T23:57:37.231Z,2.75
